sensor_id;sensor_type;location;lat;lon;timestamp;temperature;humidity
9393;DHT22;4736;52.508;13.422;2023-01-19T00:01:19;-0.30;1.00
9393;DHT22;4736;52.508;13.422;2023-01-19T00:04:22;-0.30;1.00
9393;DHT22;4736;52.508;13.422;2023-01-19T00:07:25;-0.30;1.00
9393;DHT22;4736;52.508;13.422;2023-01-19T00:10:28;-0.30;1.00
9393;DHT22;4736;52.508;13.422;2023-01-19T00:13:31;-0.20;1.00
9393;DHT22;4736;52.508;13.422;2023-01-19T00:16:35;-0.10;1.00
9393;DHT22;4736;52.508;13.422;2023-01-19T00:19:39;-0.10;1.00
9393;DHT22;4736;52.508;13.422;2023-01-19T00:22:42;0.00;1.00
9393;DHT22;4736;52.508;13.422;2023-01-19T00:25:45;-0.40;1.00
9393;DHT22;4736;52.508;13.422;2023-01-19T00:28:49;-0.50;1.00
9393;DHT22;4736;52.508;13.422;2023-01-19T00:31:55;-0.30;1.00
9393;DHT22;4736;52.508;13.422;2023-01-19T00:34:58;-0.40;1.00
9393;DHT22;4736;52.508;13.422;2023-01-19T00:38:01;-0.60;1.00
9393;DHT22;4736;52.508;13.422;2023-01-19T00:41:05;-0.50;1.00
9393;DHT22;4736;52.508;13.422;2023-01-19T00:44:08;-0.40;1.00
9393;DHT22;4736;52.508;13.422;2023-01-19T00:47:13;-0.50;1.00
9393;DHT22;4736;52.508;13.422;2023-01-19T00:50:16;-0.40;1.00
9393;DHT22;4736;52.508;13.422;2023-01-19T00:53:19;-0.60;1.00
9393;DHT22;4736;52.508;13.422;2023-01-19T00:56:22;-0.60;1.00
9393;DHT22;4736;52.508;13.422;2023-01-19T00:59:25;-0.80;1.00
9393;DHT22;4736;52.508;13.422;2023-01-19T01:02:30;-0.70;1.00
9393;DHT22;4736;52.508;13.422;2023-01-19T01:05:33;-0.70;1.00
9393;DHT22;4736;52.508;13.422;2023-01-19T01:08:36;-0.70;1.00
9393;DHT22;4736;52.508;13.422;2023-01-19T01:11:40;-0.80;1.00
9393;DHT22;4736;52.508;13.422;2023-01-19T01:14:44;-0.80;1.00
9393;DHT22;4736;52.508;13.422;2023-01-19T01:17:48;-0.80;1.00
9393;DHT22;4736;52.508;13.422;2023-01-19T01:20:59;-0.50;1.00
9393;DHT22;4736;52.508;13.422;2023-01-19T01:24:03;-0.50;1.00
9393;DHT22;4736;52.508;13.422;2023-01-19T01:27:06;-0.90;1.00
9393;DHT22;4736;52.508;13.422;2023-01-19T01:30:12;-1.00;1.00
9393;DHT22;4736;52.508;13.422;2023-01-19T01:33:17;-0.90;1.00
9393;DHT22;4736;52.508;13.422;2023-01-19T01:36:40;-0.90;1.00
9393;DHT22;4736;52.508;13.422;2023-01-19T01:39:43;-1.00;1.00
9393;DHT22;4736;52.508;13.422;2023-01-19T01:42:46;-1.10;1.00
9393;DHT22;4736;52.508;13.422;2023-01-19T01:45:49;-0.90;1.00
9393;DHT22;4736;52.508;13.422;2023-01-19T01:48:58;-1.00;1.00
9393;DHT22;4736;52.508;13.422;2023-01-19T01:52:02;-1.00;1.00
9393;DHT22;4736;52.508;13.422;2023-01-19T01:55:06;-1.10;1.00
9393;DHT22;4736;52.508;13.422;2023-01-19T01:58:10;-0.80;1.00
9393;DHT22;4736;52.508;13.422;2023-01-19T02:01:13;-1.10;1.00
9393;DHT22;4736;52.508;13.422;2023-01-19T02:04:36;-1.10;1.00
9393;DHT22;4736;52.508;13.422;2023-01-19T02:07:45;-1.30;1.00
9393;DHT22;4736;52.508;13.422;2023-01-19T02:11:06;-1.00;1.00
9393;DHT22;4736;52.508;13.422;2023-01-19T02:14:27;-1.40;1.00
9393;DHT22;4736;52.508;13.422;2023-01-19T02:17:30;-1.20;1.00
9393;DHT22;4736;52.508;13.422;2023-01-19T02:20:35;-1.40;1.00
9393;DHT22;4736;52.508;13.422;2023-01-19T02:23:43;-1.20;1.00
9393;DHT22;4736;52.508;13.422;2023-01-19T02:26:47;-1.50;1.00
9393;DHT22;4736;52.508;13.422;2023-01-19T02:29:50;-1.40;1.00
9393;DHT22;4736;52.508;13.422;2023-01-19T02:32:53;-1.40;1.00
9393;DHT22;4736;52.508;13.422;2023-01-19T02:35:57;-1.50;1.00
9393;DHT22;4736;52.508;13.422;2023-01-19T02:39:03;-1.20;1.00
9393;DHT22;4736;52.508;13.422;2023-01-19T02:42:09;-1.30;1.00
9393;DHT22;4736;52.508;13.422;2023-01-19T02:45:16;-1.50;1.00
9393;DHT22;4736;52.508;13.422;2023-01-19T02:48:20;-1.60;1.00
9393;DHT22;4736;52.508;13.422;2023-01-19T02:51:24;-1.50;1.00
9393;DHT22;4736;52.508;13.422;2023-01-19T02:54:35;-1.40;1.00
9393;DHT22;4736;52.508;13.422;2023-01-19T02:57:52;-1.40;1.00
9393;DHT22;4736;52.508;13.422;2023-01-19T03:01:02;-1.50;1.00
9393;DHT22;4736;52.508;13.422;2023-01-19T03:04:14;-1.40;1.00
9393;DHT22;4736;52.508;13.422;2023-01-19T03:07:30;-1.40;1.00
9393;DHT22;4736;52.508;13.422;2023-01-19T03:10:44;-1.70;1.00
9393;DHT22;4736;52.508;13.422;2023-01-19T03:13:52;-1.40;1.00
9393;DHT22;4736;52.508;13.422;2023-01-19T03:16:59;-1.80;1.00
9393;DHT22;4736;52.508;13.422;2023-01-19T03:20:06;-1.60;1.00
9393;DHT22;4736;52.508;13.422;2023-01-19T03:23:11;-1.60;1.00
9393;DHT22;4736;52.508;13.422;2023-01-19T03:26:18;-1.70;1.00
9393;DHT22;4736;52.508;13.422;2023-01-19T03:29:25;-1.90;1.00
9393;DHT22;4736;52.508;13.422;2023-01-19T03:32:33;-1.70;1.00
9393;DHT22;4736;52.508;13.422;2023-01-19T03:35:40;-2.00;1.00
9393;DHT22;4736;52.508;13.422;2023-01-19T03:38:47;-1.90;1.00
9393;DHT22;4736;52.508;13.422;2023-01-19T03:41:55;-2.00;1.00
9393;DHT22;4736;52.508;13.422;2023-01-19T03:45:00;-1.90;1.00
9393;DHT22;4736;52.508;13.422;2023-01-19T03:48:04;-2.10;1.00
9393;DHT22;4736;52.508;13.422;2023-01-19T03:51:08;-1.80;1.00
9393;DHT22;4736;52.508;13.422;2023-01-19T03:54:12;-1.90;1.00
9393;DHT22;4736;52.508;13.422;2023-01-19T03:57:17;-2.30;1.00
9393;DHT22;4736;52.508;13.422;2023-01-19T04:00:20;-2.00;1.00
9393;DHT22;4736;52.508;13.422;2023-01-19T04:03:23;-2.20;1.00
9393;DHT22;4736;52.508;13.422;2023-01-19T04:06:26;-2.20;1.00
9393;DHT22;4736;52.508;13.422;2023-01-19T04:09:29;-2.10;1.00
9393;DHT22;4736;52.508;13.422;2023-01-19T04:12:33;-2.30;1.00
9393;DHT22;4736;52.508;13.422;2023-01-19T04:15:36;-2.10;1.00
9393;DHT22;4736;52.508;13.422;2023-01-19T04:18:40;-2.00;1.00
9393;DHT22;4736;52.508;13.422;2023-01-19T04:21:43;-2.10;1.00
9393;DHT22;4736;52.508;13.422;2023-01-19T04:24:47;-2.00;1.00
9393;DHT22;4736;52.508;13.422;2023-01-19T04:27:52;-2.10;1.00
9393;DHT22;4736;52.508;13.422;2023-01-19T04:30:56;-2.10;1.00
9393;DHT22;4736;52.508;13.422;2023-01-19T04:33:59;-2.10;1.00
9393;DHT22;4736;52.508;13.422;2023-01-19T04:37:02;-2.10;1.00
9393;DHT22;4736;52.508;13.422;2023-01-19T04:40:07;-2.30;1.00
9393;DHT22;4736;52.508;13.422;2023-01-19T04:43:11;-2.00;1.00
9393;DHT22;4736;52.508;13.422;2023-01-19T04:46:14;-2.10;1.00
9393;DHT22;4736;52.508;13.422;2023-01-19T04:49:17;-2.00;1.00
9393;DHT22;4736;52.508;13.422;2023-01-19T04:52:21;-1.90;1.00
9393;DHT22;4736;52.508;13.422;2023-01-19T04:55:24;-2.10;1.00
9393;DHT22;4736;52.508;13.422;2023-01-19T04:58:28;-1.90;1.00
9393;DHT22;4736;52.508;13.422;2023-01-19T05:01:32;-2.10;1.00
9393;DHT22;4736;52.508;13.422;2023-01-19T05:04:35;-1.80;1.00
9393;DHT22;4736;52.508;13.422;2023-01-19T05:07:38;-1.90;1.00
9393;DHT22;4736;52.508;13.422;2023-01-19T05:10:41;-2.00;1.00
9393;DHT22;4736;52.508;13.422;2023-01-19T05:13:46;-2.00;1.00
9393;DHT22;4736;52.508;13.422;2023-01-19T05:16:51;-2.00;1.00
9393;DHT22;4736;52.508;13.422;2023-01-19T05:19:54;-1.90;1.00
9393;DHT22;4736;52.508;13.422;2023-01-19T05:22:57;-1.90;1.00
9393;DHT22;4736;52.508;13.422;2023-01-19T05:26:01;-1.90;1.00
9393;DHT22;4736;52.508;13.422;2023-01-19T05:29:06;-1.80;1.00
9393;DHT22;4736;52.508;13.422;2023-01-19T05:32:10;-1.90;1.00
9393;DHT22;4736;52.508;13.422;2023-01-19T05:35:14;-2.00;1.00
9393;DHT22;4736;52.508;13.422;2023-01-19T05:38:25;-2.00;1.00
9393;DHT22;4736;52.508;13.422;2023-01-19T05:41:36;-2.00;1.00
9393;DHT22;4736;52.508;13.422;2023-01-19T05:44:40;-2.30;1.00
9393;DHT22;4736;52.508;13.422;2023-01-19T05:47:43;-2.10;1.00
9393;DHT22;4736;52.508;13.422;2023-01-19T05:50:46;-2.00;1.00
9393;DHT22;4736;52.508;13.422;2023-01-19T05:53:50;-2.10;1.00
9393;DHT22;4736;52.508;13.422;2023-01-19T05:56:53;-2.40;1.00
9393;DHT22;4736;52.508;13.422;2023-01-19T05:59:57;-2.40;1.00
9393;DHT22;4736;52.508;13.422;2023-01-19T06:03:00;-2.30;1.00
9393;DHT22;4736;52.508;13.422;2023-01-19T06:06:05;-2.30;1.00
9393;DHT22;4736;52.508;13.422;2023-01-19T06:09:08;-2.50;1.00
9393;DHT22;4736;52.508;13.422;2023-01-19T06:12:12;-2.30;1.00
9393;DHT22;4736;52.508;13.422;2023-01-19T06:15:17;-2.30;1.00
9393;DHT22;4736;52.508;13.422;2023-01-19T06:18:20;-2.40;1.00
9393;DHT22;4736;52.508;13.422;2023-01-19T06:21:23;-2.30;1.00
9393;DHT22;4736;52.508;13.422;2023-01-19T06:24:26;-2.20;1.00
9393;DHT22;4736;52.508;13.422;2023-01-19T06:27:30;-2.50;1.00
9393;DHT22;4736;52.508;13.422;2023-01-19T06:30:34;-2.50;1.00
9393;DHT22;4736;52.508;13.422;2023-01-19T06:33:37;-2.40;1.00
9393;DHT22;4736;52.508;13.422;2023-01-19T06:36:40;-2.40;1.00
9393;DHT22;4736;52.508;13.422;2023-01-19T06:39:43;-2.30;1.00
9393;DHT22;4736;52.508;13.422;2023-01-19T06:42:47;-2.30;1.00
9393;DHT22;4736;52.508;13.422;2023-01-19T06:45:52;-2.30;1.00
9393;DHT22;4736;52.508;13.422;2023-01-19T06:48:55;-2.50;1.00
9393;DHT22;4736;52.508;13.422;2023-01-19T06:51:58;-2.40;1.00
9393;DHT22;4736;52.508;13.422;2023-01-19T06:55:26;-2.40;1.00
9393;DHT22;4736;52.508;13.422;2023-01-19T06:58:29;-2.50;1.00
9393;DHT22;4736;52.508;13.422;2023-01-19T07:01:34;-2.40;1.00
9393;DHT22;4736;52.508;13.422;2023-01-19T07:04:37;-2.30;1.00
9393;DHT22;4736;52.508;13.422;2023-01-19T07:07:40;-2.20;1.00
9393;DHT22;4736;52.508;13.422;2023-01-19T07:10:45;-2.20;1.00
9393;DHT22;4736;52.508;13.422;2023-01-19T07:14:08;-2.40;1.00
9393;DHT22;4736;52.508;13.422;2023-01-19T07:17:12;-2.50;1.00
9393;DHT22;4736;52.508;13.422;2023-01-19T07:20:16;-2.40;1.00
9393;DHT22;4736;52.508;13.422;2023-01-19T07:23:20;-2.50;1.00
9393;DHT22;4736;52.508;13.422;2023-01-19T07:26:23;-2.50;1.00
9393;DHT22;4736;52.508;13.422;2023-01-19T07:29:26;-2.40;1.00
9393;DHT22;4736;52.508;13.422;2023-01-19T07:32:30;-2.50;1.00
9393;DHT22;4736;52.508;13.422;2023-01-19T07:35:34;-2.20;1.00
9393;DHT22;4736;52.508;13.422;2023-01-19T07:38:37;-2.30;1.00
9393;DHT22;4736;52.508;13.422;2023-01-19T07:41:40;-2.40;1.00
9393;DHT22;4736;52.508;13.422;2023-01-19T07:44:43;-2.40;1.00
9393;DHT22;4736;52.508;13.422;2023-01-19T07:47:48;-2.30;1.00
9393;DHT22;4736;52.508;13.422;2023-01-19T07:50:51;-2.30;1.00
9393;DHT22;4736;52.508;13.422;2023-01-19T07:53:54;-2.30;1.00
9393;DHT22;4736;52.508;13.422;2023-01-19T07:56:57;-2.30;1.00
9393;DHT22;4736;52.508;13.422;2023-01-19T08:00:02;-2.40;1.00
9393;DHT22;4736;52.508;13.422;2023-01-19T08:03:08;-2.30;1.00
9393;DHT22;4736;52.508;13.422;2023-01-19T08:06:18;-2.10;1.00
9393;DHT22;4736;52.508;13.422;2023-01-19T08:09:22;-2.30;1.00
9393;DHT22;4736;52.508;13.422;2023-01-19T08:12:25;-2.00;1.00
9393;DHT22;4736;52.508;13.422;2023-01-19T08:15:28;-2.00;1.00
9393;DHT22;4736;52.508;13.422;2023-01-19T08:18:34;-2.10;1.00
9393;DHT22;4736;52.508;13.422;2023-01-19T08:21:37;-2.10;1.00
9393;DHT22;4736;52.508;13.422;2023-01-19T08:24:40;-2.00;1.00
9393;DHT22;4736;52.508;13.422;2023-01-19T08:27:43;-1.90;1.00
9393;DHT22;4736;52.508;13.422;2023-01-19T08:30:47;-1.90;1.00
9393;DHT22;4736;52.508;13.422;2023-01-19T08:33:56;-1.80;1.00
9393;DHT22;4736;52.508;13.422;2023-01-19T08:36:59;-1.80;1.00
9393;DHT22;4736;52.508;13.422;2023-01-19T08:40:02;-1.80;1.00
9393;DHT22;4736;52.508;13.422;2023-01-19T08:43:09;-1.70;1.00
9393;DHT22;4736;52.508;13.422;2023-01-19T08:46:12;-1.50;1.00
9393;DHT22;4736;52.508;13.422;2023-01-19T08:49:19;-1.70;1.00
9393;DHT22;4736;52.508;13.422;2023-01-19T08:52:22;-1.30;1.00
9393;DHT22;4736;52.508;13.422;2023-01-19T08:55:27;-1.10;1.00
9393;DHT22;4736;52.508;13.422;2023-01-19T08:58:31;-1.00;1.00
9393;DHT22;4736;52.508;13.422;2023-01-19T09:01:34;-1.10;1.00
9393;DHT22;4736;52.508;13.422;2023-01-19T09:04:39;-1.00;1.00
9393;DHT22;4736;52.508;13.422;2023-01-19T09:07:43;-1.00;1.00
9393;DHT22;4736;52.508;13.422;2023-01-19T09:10:48;-0.80;1.00
9393;DHT22;4736;52.508;13.422;2023-01-19T09:13:51;-0.80;1.00
9393;DHT22;4736;52.508;13.422;2023-01-19T09:16:55;-1.00;1.00
9393;DHT22;4736;52.508;13.422;2023-01-19T09:19:59;-0.90;1.00
9393;DHT22;4736;52.508;13.422;2023-01-19T09:23:02;-0.60;1.00
9393;DHT22;4736;52.508;13.422;2023-01-19T09:26:06;-0.30;1.00
9393;DHT22;4736;52.508;13.422;2023-01-19T09:29:09;-0.60;1.00
9393;DHT22;4736;52.508;13.422;2023-01-19T09:32:12;-0.60;1.00
9393;DHT22;4736;52.508;13.422;2023-01-19T09:35:16;-0.10;1.00
9393;DHT22;4736;52.508;13.422;2023-01-19T09:38:19;0.20;1.00
9393;DHT22;4736;52.508;13.422;2023-01-19T09:41:23;0.50;1.00
9393;DHT22;4736;52.508;13.422;2023-01-19T09:44:28;0.70;1.00
9393;DHT22;4736;52.508;13.422;2023-01-19T09:47:34;0.60;1.00
9393;DHT22;4736;52.508;13.422;2023-01-19T09:50:41;0.60;1.00
9393;DHT22;4736;52.508;13.422;2023-01-19T09:54:02;0.60;1.00
9393;DHT22;4736;52.508;13.422;2023-01-19T09:57:09;0.80;1.00
9393;DHT22;4736;52.508;13.422;2023-01-19T10:00:14;0.70;1.00
9393;DHT22;4736;52.508;13.422;2023-01-19T10:03:18;0.80;1.00
9393;DHT22;4736;52.508;13.422;2023-01-19T10:06:23;0.70;1.00
9393;DHT22;4736;52.508;13.422;2023-01-19T10:09:31;1.10;1.00
9393;DHT22;4736;52.508;13.422;2023-01-19T10:12:42;0.70;1.00
9393;DHT22;4736;52.508;13.422;2023-01-19T10:15:56;0.80;1.00
9393;DHT22;4736;52.508;13.422;2023-01-19T10:19:11;1.00;1.00
9393;DHT22;4736;52.508;13.422;2023-01-19T10:22:21;1.10;1.00
9393;DHT22;4736;52.508;13.422;2023-01-19T10:25:26;1.20;1.00
9393;DHT22;4736;52.508;13.422;2023-01-19T10:28:29;1.00;1.00
9393;DHT22;4736;52.508;13.422;2023-01-19T10:31:34;1.40;1.00
9393;DHT22;4736;52.508;13.422;2023-01-19T10:34:39;1.30;1.00
9393;DHT22;4736;52.508;13.422;2023-01-19T10:37:44;1.50;1.00
9393;DHT22;4736;52.508;13.422;2023-01-19T10:40:52;1.40;1.00
9393;DHT22;4736;52.508;13.422;2023-01-19T10:44:01;1.40;1.00
9393;DHT22;4736;52.508;13.422;2023-01-19T10:47:06;1.60;1.00
9393;DHT22;4736;52.508;13.422;2023-01-19T10:50:26;1.60;1.00
9393;DHT22;4736;52.508;13.422;2023-01-19T10:53:31;1.50;1.00
9393;DHT22;4736;52.508;13.422;2023-01-19T10:56:35;1.50;1.00
9393;DHT22;4736;52.508;13.422;2023-01-19T10:59:47;1.60;1.00
9393;DHT22;4736;52.508;13.422;2023-01-19T11:02:51;1.70;1.00
9393;DHT22;4736;52.508;13.422;2023-01-19T11:06:18;1.90;1.00
9393;DHT22;4736;52.508;13.422;2023-01-19T11:09:23;2.10;1.00
9393;DHT22;4736;52.508;13.422;2023-01-19T11:12:26;2.00;1.00
9393;DHT22;4736;52.508;13.422;2023-01-19T11:15:31;2.10;1.00
9393;DHT22;4736;52.508;13.422;2023-01-19T11:18:37;2.10;1.00
9393;DHT22;4736;52.508;13.422;2023-01-19T11:21:40;2.20;1.00
9393;DHT22;4736;52.508;13.422;2023-01-19T11:24:45;2.20;1.00
9393;DHT22;4736;52.508;13.422;2023-01-19T11:27:49;2.40;1.00
9393;DHT22;4736;52.508;13.422;2023-01-19T11:30:55;2.30;1.00
9393;DHT22;4736;52.508;13.422;2023-01-19T11:33:59;2.30;1.00
9393;DHT22;4736;52.508;13.422;2023-01-19T11:37:05;2.30;1.00
9393;DHT22;4736;52.508;13.422;2023-01-19T11:40:10;2.30;1.00
9393;DHT22;4736;52.508;13.422;2023-01-19T11:43:15;2.30;1.00
9393;DHT22;4736;52.508;13.422;2023-01-19T11:46:18;2.40;1.00
9393;DHT22;4736;52.508;13.422;2023-01-19T11:49:28;2.50;1.00
9393;DHT22;4736;52.508;13.422;2023-01-19T11:52:36;2.40;1.00
9393;DHT22;4736;52.508;13.422;2023-01-19T11:55:47;2.50;1.00
9393;DHT22;4736;52.508;13.422;2023-01-19T11:58:52;2.50;1.00
9393;DHT22;4736;52.508;13.422;2023-01-19T12:01:57;2.50;1.00
9393;DHT22;4736;52.508;13.422;2023-01-19T12:05:08;2.80;1.00
9393;DHT22;4736;52.508;13.422;2023-01-19T12:08:17;2.50;1.00
9393;DHT22;4736;52.508;13.422;2023-01-19T12:11:26;2.70;1.00
9393;DHT22;4736;52.508;13.422;2023-01-19T12:14:37;3.10;1.00
9393;DHT22;4736;52.508;13.422;2023-01-19T12:17:46;2.80;1.00
9393;DHT22;4736;52.508;13.422;2023-01-19T12:20:52;2.70;1.00
9393;DHT22;4736;52.508;13.422;2023-01-19T12:24:03;3.10;1.00
9393;DHT22;4736;52.508;13.422;2023-01-19T12:27:15;2.90;1.00
9393;DHT22;4736;52.508;13.422;2023-01-19T12:30:22;2.90;1.00
9393;DHT22;4736;52.508;13.422;2023-01-19T12:33:33;3.10;1.00
9393;DHT22;4736;52.508;13.422;2023-01-19T12:36:38;2.90;1.00
9393;DHT22;4736;52.508;13.422;2023-01-19T12:39:47;2.90;1.00
9393;DHT22;4736;52.508;13.422;2023-01-19T12:42:56;3.00;1.00
9393;DHT22;4736;52.508;13.422;2023-01-19T12:46:01;2.90;1.00
9393;DHT22;4736;52.508;13.422;2023-01-19T12:49:05;2.90;1.00
9393;DHT22;4736;52.508;13.422;2023-01-19T12:52:29;3.00;1.00
9393;DHT22;4736;52.508;13.422;2023-01-19T12:55:35;3.20;1.00
9393;DHT22;4736;52.508;13.422;2023-01-19T12:58:46;3.10;1.00
9393;DHT22;4736;52.508;13.422;2023-01-19T13:05:57;3.00;1.00
9393;DHT22;4736;52.508;13.422;2023-01-19T13:09:01;3.00;1.00
9393;DHT22;4736;52.508;13.422;2023-01-19T13:12:19;3.00;1.00
9393;DHT22;4736;52.508;13.422;2023-01-19T13:15:28;3.00;1.00
9393;DHT22;4736;52.508;13.422;2023-01-19T13:18:39;3.20;1.00
9393;DHT22;4736;52.508;13.422;2023-01-19T13:21:45;3.10;1.00
9393;DHT22;4736;52.508;13.422;2023-01-19T13:25:05;3.10;1.00
9393;DHT22;4736;52.508;13.422;2023-01-19T13:28:09;3.00;1.00
9393;DHT22;4736;52.508;13.422;2023-01-19T13:31:17;3.10;1.00
9393;DHT22;4736;52.508;13.422;2023-01-19T13:34:23;3.10;1.00
9393;DHT22;4736;52.508;13.422;2023-01-19T13:37:32;3.00;1.00
9393;DHT22;4736;52.508;13.422;2023-01-19T13:40:37;3.00;1.00
9393;DHT22;4736;52.508;13.422;2023-01-19T13:43:41;3.20;1.00
9393;DHT22;4736;52.508;13.422;2023-01-19T13:46:46;2.90;1.00
9393;DHT22;4736;52.508;13.422;2023-01-19T13:49:52;3.00;1.00
9393;DHT22;4736;52.508;13.422;2023-01-19T13:52:57;2.90;1.00
9393;DHT22;4736;52.508;13.422;2023-01-19T13:56:18;2.70;1.00
9393;DHT22;4736;52.508;13.422;2023-01-19T13:59:22;2.90;1.00
9393;DHT22;4736;52.508;13.422;2023-01-19T14:02:27;2.40;1.00
9393;DHT22;4736;52.508;13.422;2023-01-19T14:05:31;2.50;1.00
9393;DHT22;4736;52.508;13.422;2023-01-19T14:08:35;2.60;1.00
9393;DHT22;4736;52.508;13.422;2023-01-19T14:11:38;2.40;1.00
9393;DHT22;4736;52.508;13.422;2023-01-19T14:14:42;2.40;1.00
9393;DHT22;4736;52.508;13.422;2023-01-19T14:18:07;2.30;1.00
9393;DHT22;4736;52.508;13.422;2023-01-19T14:21:11;2.10;1.00
9393;DHT22;4736;52.508;13.422;2023-01-19T14:24:16;2.10;1.00
9393;DHT22;4736;52.508;13.422;2023-01-19T14:27:21;2.10;1.00
9393;DHT22;4736;52.508;13.422;2023-01-19T14:30:25;2.20;1.00
9393;DHT22;4736;52.508;13.422;2023-01-19T14:33:35;1.90;1.00
9393;DHT22;4736;52.508;13.422;2023-01-19T14:36:38;1.80;1.00
9393;DHT22;4736;52.508;13.422;2023-01-19T14:39:46;1.80;1.00
9393;DHT22;4736;52.508;13.422;2023-01-19T14:42:52;1.80;1.00
9393;DHT22;4736;52.508;13.422;2023-01-19T14:45:56;1.90;1.00
9393;DHT22;4736;52.508;13.422;2023-01-19T14:49:02;1.50;1.00
9393;DHT22;4736;52.508;13.422;2023-01-19T14:52:14;1.60;1.00
9393;DHT22;4736;52.508;13.422;2023-01-19T14:55:20;1.70;1.00
9393;DHT22;4736;52.508;13.422;2023-01-19T14:58:26;1.70;1.00
9393;DHT22;4736;52.508;13.422;2023-01-19T15:01:31;1.70;1.00
9393;DHT22;4736;52.508;13.422;2023-01-19T15:04:36;1.60;1.00
9393;DHT22;4736;52.508;13.422;2023-01-19T15:07:42;1.30;1.00
9393;DHT22;4736;52.508;13.422;2023-01-19T15:10:45;1.40;1.00
9393;DHT22;4736;52.508;13.422;2023-01-19T15:13:49;1.60;1.00
9393;DHT22;4736;52.508;13.422;2023-01-19T15:16:52;1.40;1.00
9393;DHT22;4736;52.508;13.422;2023-01-19T15:19:57;1.30;1.00
9393;DHT22;4736;52.508;13.422;2023-01-19T15:23:00;1.10;1.00
9393;DHT22;4736;52.508;13.422;2023-01-19T15:26:04;1.30;1.00
9393;DHT22;4736;52.508;13.422;2023-01-19T15:29:15;1.00;1.00
9393;DHT22;4736;52.508;13.422;2023-01-19T15:32:19;1.30;1.00
9393;DHT22;4736;52.508;13.422;2023-01-19T15:35:24;1.20;1.00
9393;DHT22;4736;52.508;13.422;2023-01-19T15:38:27;1.10;1.00
9393;DHT22;4736;52.508;13.422;2023-01-19T15:41:31;1.40;1.00
9393;DHT22;4736;52.508;13.422;2023-01-19T15:44:34;1.30;1.00
9393;DHT22;4736;52.508;13.422;2023-01-19T15:47:37;1.20;1.00
9393;DHT22;4736;52.508;13.422;2023-01-19T15:50:42;1.30;1.00
9393;DHT22;4736;52.508;13.422;2023-01-19T15:53:46;1.30;1.00
9393;DHT22;4736;52.508;13.422;2023-01-19T15:56:49;1.20;1.00
9393;DHT22;4736;52.508;13.422;2023-01-19T15:59:53;1.20;1.00
9393;DHT22;4736;52.508;13.422;2023-01-19T16:02:56;1.30;1.00
9393;DHT22;4736;52.508;13.422;2023-01-19T16:06:01;1.20;1.00
9393;DHT22;4736;52.508;13.422;2023-01-19T16:09:04;1.10;1.00
9393;DHT22;4736;52.508;13.422;2023-01-19T16:12:08;1.40;1.00
9393;DHT22;4736;52.508;13.422;2023-01-19T16:15:11;1.50;1.00
9393;DHT22;4736;52.508;13.422;2023-01-19T16:18:14;1.10;1.00
9393;DHT22;4736;52.508;13.422;2023-01-19T16:21:18;1.10;1.00
9393;DHT22;4736;52.508;13.422;2023-01-19T16:24:22;1.00;1.00
9393;DHT22;4736;52.508;13.422;2023-01-19T16:27:25;1.20;1.00
9393;DHT22;4736;52.508;13.422;2023-01-19T16:30:28;1.20;1.00
9393;DHT22;4736;52.508;13.422;2023-01-19T16:33:31;0.90;1.00
9393;DHT22;4736;52.508;13.422;2023-01-19T16:36:37;0.80;1.00
9393;DHT22;4736;52.508;13.422;2023-01-19T16:39:41;1.20;1.00
9393;DHT22;4736;52.508;13.422;2023-01-19T16:42:46;1.10;1.00
9393;DHT22;4736;52.508;13.422;2023-01-19T16:45:59;0.80;1.00
9393;DHT22;4736;52.508;13.422;2023-01-19T16:49:04;0.80;1.00
9393;DHT22;4736;52.508;13.422;2023-01-19T16:52:09;0.70;1.00
9393;DHT22;4736;52.508;13.422;2023-01-19T16:55:12;0.80;1.00
9393;DHT22;4736;52.508;13.422;2023-01-19T16:58:15;1.00;1.00
9393;DHT22;4736;52.508;13.422;2023-01-19T17:01:18;1.20;1.00
9393;DHT22;4736;52.508;13.422;2023-01-19T17:04:22;0.90;1.00
9393;DHT22;4736;52.508;13.422;2023-01-19T17:07:26;0.80;1.00
9393;DHT22;4736;52.508;13.422;2023-01-19T17:10:30;1.00;1.00
9393;DHT22;4736;52.508;13.422;2023-01-19T17:13:33;0.90;1.00
9393;DHT22;4736;52.508;13.422;2023-01-19T17:16:36;1.10;1.00
9393;DHT22;4736;52.508;13.422;2023-01-19T17:19:39;0.90;1.00
9393;DHT22;4736;52.508;13.422;2023-01-19T17:22:44;0.90;1.00
9393;DHT22;4736;52.508;13.422;2023-01-19T17:25:51;1.10;1.00
9393;DHT22;4736;52.508;13.422;2023-01-19T17:28:57;1.00;1.00
9393;DHT22;4736;52.508;13.422;2023-01-19T17:32:00;1.20;1.00
9393;DHT22;4736;52.508;13.422;2023-01-19T17:35:03;1.20;1.00
9393;DHT22;4736;52.508;13.422;2023-01-19T17:38:08;1.10;1.00
9393;DHT22;4736;52.508;13.422;2023-01-19T17:41:12;1.10;1.00
9393;DHT22;4736;52.508;13.422;2023-01-19T17:44:15;1.00;1.00
9393;DHT22;4736;52.508;13.422;2023-01-19T17:47:18;1.00;1.00
9393;DHT22;4736;52.508;13.422;2023-01-19T17:50:26;1.10;1.00
9393;DHT22;4736;52.508;13.422;2023-01-19T17:53:30;0.90;1.00
9393;DHT22;4736;52.508;13.422;2023-01-19T17:56:33;1.10;1.00
9393;DHT22;4736;52.508;13.422;2023-01-19T17:59:39;1.00;1.00
9393;DHT22;4736;52.508;13.422;2023-01-19T18:02:47;0.90;1.00
9393;DHT22;4736;52.508;13.422;2023-01-19T18:05:53;1.40;1.00
9393;DHT22;4736;52.508;13.422;2023-01-19T18:08:58;1.30;1.00
9393;DHT22;4736;52.508;13.422;2023-01-19T18:12:01;1.30;1.00
9393;DHT22;4736;52.508;13.422;2023-01-19T18:15:05;1.30;1.00
9393;DHT22;4736;52.508;13.422;2023-01-19T18:18:09;1.60;1.00
9393;DHT22;4736;52.508;13.422;2023-01-19T18:21:13;1.40;1.00
9393;DHT22;4736;52.508;13.422;2023-01-19T18:24:18;1.60;1.00
9393;DHT22;4736;52.508;13.422;2023-01-19T18:27:21;1.30;1.00
9393;DHT22;4736;52.508;13.422;2023-01-19T18:30:24;1.60;1.00
9393;DHT22;4736;52.508;13.422;2023-01-19T18:33:27;1.40;1.00
9393;DHT22;4736;52.508;13.422;2023-01-19T18:36:32;1.30;1.00
9393;DHT22;4736;52.508;13.422;2023-01-19T18:39:37;1.60;1.00
9393;DHT22;4736;52.508;13.422;2023-01-19T18:42:40;1.40;1.00
9393;DHT22;4736;52.508;13.422;2023-01-19T18:45:44;1.70;1.00
9393;DHT22;4736;52.508;13.422;2023-01-19T18:48:48;1.40;1.00
9393;DHT22;4736;52.508;13.422;2023-01-19T18:51:52;1.50;1.00
9393;DHT22;4736;52.508;13.422;2023-01-19T18:54:56;1.60;1.00
9393;DHT22;4736;52.508;13.422;2023-01-19T18:57:59;1.80;1.00
9393;DHT22;4736;52.508;13.422;2023-01-19T19:01:16;1.40;1.00
9393;DHT22;4736;52.508;13.422;2023-01-19T19:04:19;1.50;1.00
9393;DHT22;4736;52.508;13.422;2023-01-19T19:07:22;1.60;1.00
9393;DHT22;4736;52.508;13.422;2023-01-19T19:10:26;1.40;1.00
9393;DHT22;4736;52.508;13.422;2023-01-19T19:13:29;1.50;1.00
9393;DHT22;4736;52.508;13.422;2023-01-19T19:16:32;1.80;1.00
9393;DHT22;4736;52.508;13.422;2023-01-19T19:19:38;1.60;1.00
9393;DHT22;4736;52.508;13.422;2023-01-19T19:22:41;1.60;1.00
9393;DHT22;4736;52.508;13.422;2023-01-19T19:25:46;1.70;1.00
9393;DHT22;4736;52.508;13.422;2023-01-19T19:28:49;1.40;1.00
9393;DHT22;4736;52.508;13.422;2023-01-19T19:31:52;1.40;1.00
9393;DHT22;4736;52.508;13.422;2023-01-19T19:34:56;1.80;1.00
9393;DHT22;4736;52.508;13.422;2023-01-19T19:37:59;1.80;1.00
9393;DHT22;4736;52.508;13.422;2023-01-19T19:41:08;2.00;1.00
9393;DHT22;4736;52.508;13.422;2023-01-19T19:44:13;1.60;1.00
9393;DHT22;4736;52.508;13.422;2023-01-19T19:47:16;1.70;1.00
9393;DHT22;4736;52.508;13.422;2023-01-19T19:50:19;1.60;1.00
9393;DHT22;4736;52.508;13.422;2023-01-19T19:53:22;1.80;1.00
9393;DHT22;4736;52.508;13.422;2023-01-19T19:56:28;1.60;1.00
9393;DHT22;4736;52.508;13.422;2023-01-19T19:59:31;1.60;1.00
9393;DHT22;4736;52.508;13.422;2023-01-19T20:02:34;1.60;1.00
9393;DHT22;4736;52.508;13.422;2023-01-19T20:05:37;2.10;1.00
9393;DHT22;4736;52.508;13.422;2023-01-19T20:08:40;1.80;1.00
9393;DHT22;4736;52.508;13.422;2023-01-19T20:11:45;2.00;1.00
9393;DHT22;4736;52.508;13.422;2023-01-19T20:14:49;1.70;1.00
9393;DHT22;4736;52.508;13.422;2023-01-19T20:17:52;1.80;1.00
9393;DHT22;4736;52.508;13.422;2023-01-19T20:20:57;2.10;1.00
9393;DHT22;4736;52.508;13.422;2023-01-19T20:24:02;2.10;1.00